sensor_id;sensor_type;location;lat;lon;timestamp;pressure;altitude;pressure_sealevel;temperature;humidity
78845;BME280;68195;50.854;2.860;2024-03-02T00:00:15;99516.47;;;6.24;100.00
78845;BME280;68195;50.854;2.860;2024-03-02T00:02:50;99512.13;;;6.24;100.00
78845;BME280;68195;50.854;2.860;2024-03-02T00:05:17;99524.16;;;6.25;100.00
78845;BME280;68195;50.854;2.860;2024-03-02T00:07:45;99519.97;;;6.23;100.00
78845;BME280;68195;50.854;2.860;2024-03-02T00:10:16;99522.06;;;6.16;100.00
78845;BME280;68195;50.854;2.860;2024-03-02T00:12:47;99533.94;;;6.20;100.00
78845;BME280;68195;50.854;2.860;2024-03-02T00:17:59;99545.28;;;6.18;100.00
78845;BME280;68195;50.854;2.860;2024-03-02T00:20:25;99526.72;;;6.09;100.00
78845;BME280;68195;50.854;2.860;2024-03-02T00:23:05;99528.38;;;6.10;100.00
78845;BME280;68195;50.854;2.860;2024-03-02T00:25:41;99529.31;;;6.09;100.00
78845;BME280;68195;50.854;2.860;2024-03-02T00:28:39;99528.06;;;6.16;100.00
78845;BME280;68195;50.854;2.860;2024-03-02T00:31:09;99523.38;;;6.07;100.00
78845;BME280;68195;50.854;2.860;2024-03-02T00:33:44;99532.50;;;6.14;100.00
78845;BME280;68195;50.854;2.860;2024-03-02T00:36:15;99504.16;;;5.94;100.00
78845;BME280;68195;50.854;2.860;2024-03-02T00:38:47;99533.56;;;6.10;100.00
78845;BME280;68195;50.854;2.860;2024-03-02T00:41:24;99532.97;;;6.05;100.00
78845;BME280;68195;50.854;2.860;2024-03-02T00:49:03;99527.16;;;6.00;100.00
78845;BME280;68195;50.854;2.860;2024-03-02T00:51:32;99545.63;;;6.11;100.00
78845;BME280;68195;50.854;2.860;2024-03-02T00:54:00;99540.88;;;6.02;100.00
78845;BME280;68195;50.854;2.860;2024-03-02T00:56:30;99519.00;;;5.90;100.00
78845;BME280;68195;50.854;2.860;2024-03-02T00:58:58;99546.69;;;6.07;100.00
78845;BME280;68195;50.854;2.860;2024-03-02T01:01:23;99543.47;;;6.02;100.00
78845;BME280;68195;50.854;2.860;2024-03-02T01:03:49;99542.81;;;5.99;100.00
78845;BME280;68195;50.854;2.860;2024-03-02T01:06:17;99527.91;;;5.85;100.00
78845;BME280;68195;50.854;2.860;2024-03-02T01:08:46;99535.94;;;5.98;100.00
78845;BME280;68195;50.854;2.860;2024-03-02T01:11:15;99553.00;;;6.02;100.00
78845;BME280;68195;50.854;2.860;2024-03-02T01:13:41;99548.06;;;5.97;100.00
78845;BME280;68195;50.854;2.860;2024-03-02T01:16:06;99519.78;;;5.75;100.00
78845;BME280;68195;50.854;2.860;2024-03-02T01:18:34;99533.31;;;5.80;100.00
78845;BME280;68195;50.854;2.860;2024-03-02T01:21:00;99552.47;;;5.95;100.00
78845;BME280;68195;50.854;2.860;2024-03-02T01:23:27;99528.22;;;5.79;100.00
78845;BME280;68195;50.854;2.860;2024-03-02T01:25:53;99530.38;;;5.88;100.00
78845;BME280;68195;50.854;2.860;2024-03-02T01:28:21;99536.69;;;5.82;100.00
78845;BME280;68195;50.854;2.860;2024-03-02T01:30:47;99553.81;;;5.85;100.00
78845;BME280;68195;50.854;2.860;2024-03-02T01:33:15;99524.25;;;5.71;100.00
78845;BME280;68195;50.854;2.860;2024-03-02T01:35:40;99518.69;;;5.62;100.00
78845;BME280;68195;50.854;2.860;2024-03-02T01:38:06;99568.47;;;5.86;100.00
78845;BME280;68195;50.854;2.860;2024-03-02T01:40:37;99554.88;;;5.81;100.00
78845;BME280;68195;50.854;2.860;2024-03-02T01:43:04;99553.97;;;5.82;100.00
78845;BME280;68195;50.854;2.860;2024-03-02T01:45:29;99552.28;;;5.81;100.00
78845;BME280;68195;50.854;2.860;2024-03-02T01:47:55;99551.38;;;5.82;100.00
78845;BME280;68195;50.854;2.860;2024-03-02T01:50:28;99542.09;;;5.78;100.00
78845;BME280;68195;50.854;2.860;2024-03-02T01:52:57;99561.44;;;5.88;100.00
78845;BME280;68195;50.854;2.860;2024-03-02T01:55:23;99558.31;;;5.81;100.00
78845;BME280;68195;50.854;2.860;2024-03-02T01:57:49;99556.50;;;5.83;100.00
78845;BME280;68195;50.854;2.860;2024-03-02T02:00:20;99522.97;;;5.63;100.00
78845;BME280;68195;50.854;2.860;2024-03-02T02:02:46;99550.84;;;5.75;100.00
78845;BME280;68195;50.854;2.860;2024-03-02T02:05:12;99539.56;;;5.76;100.00
78845;BME280;68195;50.854;2.860;2024-03-02T02:07:42;99536.38;;;5.71;100.00
78845;BME280;68195;50.854;2.860;2024-03-02T02:10:11;99525.94;;;5.55;100.00
78845;BME280;68195;50.854;2.860;2024-03-02T02:12:39;99540.09;;;5.65;100.00
78845;BME280;68195;50.854;2.860;2024-03-02T02:18:16;99528.19;;;5.61;100.00
78845;BME280;68195;50.854;2.860;2024-03-02T02:20:41;99532.94;;;5.70;100.00
78845;BME280;68195;50.854;2.860;2024-03-02T02:23:06;99518.91;;;5.57;100.00
78845;BME280;68195;50.854;2.860;2024-03-02T02:25:35;99529.13;;;5.60;100.00
78845;BME280;68195;50.854;2.860;2024-03-02T02:28:00;99555.34;;;5.71;100.00
78845;BME280;68195;50.854;2.860;2024-03-02T02:30:29;99541.91;;;5.63;100.00
78845;BME280;68195;50.854;2.860;2024-03-02T02:32:57;99538.56;;;5.61;100.00
78845;BME280;68195;50.854;2.860;2024-03-02T02:35:23;99527.75;;;5.53;100.00
78845;BME280;68195;50.854;2.860;2024-03-02T02:37:52;99516.94;;;5.45;100.00
78845;BME280;68195;50.854;2.860;2024-03-02T02:40:18;99545.97;;;5.69;100.00
78845;BME280;68195;50.854;2.860;2024-03-02T02:42:48;99529.34;;;5.55;100.00
78845;BME280;68195;50.854;2.860;2024-03-02T02:45:14;99530.19;;;5.56;100.00
78845;BME280;68195;50.854;2.860;2024-03-02T02:47:43;99531.19;;;5.53;100.00
78845;BME280;68195;50.854;2.860;2024-03-02T02:50:10;99512.34;;;5.50;100.00
78845;BME280;68195;50.854;2.860;2024-03-02T02:52:36;99527.75;;;5.53;100.00
78845;BME280;68195;50.854;2.860;2024-03-02T02:55:04;99521.06;;;5.49;100.00
78845;BME280;68195;50.854;2.860;2024-03-02T02:57:31;99518.47;;;5.49;100.00
78845;BME280;68195;50.854;2.860;2024-03-02T03:00:01;99533.72;;;5.55;100.00
78845;BME280;68195;50.854;2.860;2024-03-02T03:02:32;99529.13;;;5.60;100.00
78845;BME280;68195;50.854;2.860;2024-03-02T03:05:00;99503.28;;;5.41;100.00
78845;BME280;68195;50.854;2.860;2024-03-02T03:07:25;99520.81;;;5.53;100.00
78845;BME280;68195;50.854;2.860;2024-03-02T03:09:54;99509.94;;;5.47;100.00
78845;BME280;68195;50.854;2.860;2024-03-02T03:12:19;99521.81;;;5.51;100.00
78845;BME280;68195;50.854;2.860;2024-03-02T03:14:47;99531.19;;;5.53;100.00
78845;BME280;68195;50.854;2.860;2024-03-02T03:17:12;99525.31;;;5.50;100.00
78845;BME280;68195;50.854;2.860;2024-03-02T03:19:40;99521.13;;;5.47;100.00
78845;BME280;68195;50.854;2.860;2024-03-02T03:22:06;99511.75;;;5.45;100.00
78845;BME280;68195;50.854;2.860;2024-03-02T03:24:33;99504.88;;;5.44;100.00
78845;BME280;68195;50.854;2.860;2024-03-02T03:26:59;99510.06;;;5.44;100.00
78845;BME280;68195;50.854;2.860;2024-03-02T03:29:27;99485.69;;;5.30;100.00
78845;BME280;68195;50.854;2.860;2024-03-02T03:31:52;99513.63;;;5.41;100.00
78845;BME280;68195;50.854;2.860;2024-03-02T03:34:18;99504.34;;;5.37;100.00
78845;BME280;68195;50.854;2.860;2024-03-02T03:36:43;99518.47;;;5.49;100.00
78845;BME280;68195;50.854;2.860;2024-03-02T03:39:08;99518.59;;;5.46;100.00
78845;BME280;68195;50.854;2.860;2024-03-02T03:41:34;99494.28;;;5.31;100.00
78845;BME280;68195;50.854;2.860;2024-03-02T03:43:59;99497.72;;;5.31;100.00
78845;BME280;68195;50.854;2.860;2024-03-02T03:46:27;99506.09;;;5.37;100.00
78845;BME280;68195;50.854;2.860;2024-03-02T03:48:55;99527.88;;;5.50;100.00
78845;BME280;68195;50.854;2.860;2024-03-02T03:51:21;99532.19;;;5.51;100.00
78845;BME280;68195;50.854;2.860;2024-03-02T03:53:48;99507.31;;;5.29;100.00
78845;BME280;68195;50.854;2.860;2024-03-02T03:56:16;99517.94;;;5.42;100.00
78845;BME280;68195;50.854;2.860;2024-03-02T03:58:41;99513.03;;;5.36;100.00
78845;BME280;68195;50.854;2.860;2024-03-02T04:01:07;99512.34;;;5.32;100.00
78845;BME280;68195;50.854;2.860;2024-03-02T04:03:32;99514.16;;;5.30;100.00
78845;BME280;68195;50.854;2.860;2024-03-02T04:05:58;99538.53;;;5.44;100.00
78845;BME280;68195;50.854;2.860;2024-03-02T04:08:23;99516.75;;;5.30;100.00
78845;BME280;68195;50.854;2.860;2024-03-02T04:10:48;99529.34;;;5.38;100.00
78845;BME280;68195;50.854;2.860;2024-03-02T04:13:16;99538.75;;;5.39;100.00
78845;BME280;68195;50.854;2.860;2024-03-02T04:15:42;99552.19;;;5.47;100.00
78845;BME280;68195;50.854;2.860;2024-03-02T04:18:07;99540.66;;;5.35;100.00
78845;BME280;68195;50.854;2.860;2024-03-02T04:20:32;99549.94;;;5.40;100.00
78845;BME280;68195;50.854;2.860;2024-03-02T04:22:58;99530.28;;;5.35;100.00
78845;BME280;68195;50.854;2.860;2024-03-02T04:25:23;99543.81;;;5.42;100.00
78845;BME280;68195;50.854;2.860;2024-03-02T04:27:49;99538.16;;;5.34;100.00
78845;BME280;68195;50.854;2.860;2024-03-02T04:30:14;99538.22;;;5.32;100.00
78845;BME280;68195;50.854;2.860;2024-03-02T04:32:42;99517.19;;;5.21;100.00
78845;BME280;68195;50.854;2.860;2024-03-02T04:35:13;99523.69;;;5.30;100.00
78845;BME280;68195;50.854;2.860;2024-03-02T04:37:39;99536.25;;;5.38;100.00
78845;BME280;68195;50.854;2.860;2024-03-02T04:40:05;99543.41;;;5.32;100.00
78845;BME280;68195;50.854;2.860;2024-03-02T04:42:34;99514.66;;;5.20;100.00
78845;BME280;68195;50.854;2.860;2024-03-02T04:44:59;99555.28;;;5.37;100.00
78845;BME280;68195;50.854;2.860;2024-03-02T04:47:25;99553.75;;;5.32;100.00
78845;BME280;68195;50.854;2.860;2024-03-02T04:49:50;99553.16;;;5.27;100.00
78845;BME280;68195;50.854;2.860;2024-03-02T04:52:18;99545.22;;;5.30;100.00
78845;BME280;68195;50.854;2.860;2024-03-02T04:54:43;99546.75;;;5.34;100.00
78845;BME280;68195;50.854;2.860;2024-03-02T04:57:27;99571.44;;;5.42;100.00
78845;BME280;68195;50.854;2.860;2024-03-02T04:59:57;99528.25;;;5.25;100.00
78845;BME280;68195;50.854;2.860;2024-03-02T05:02:27;99535.69;;;5.31;100.00
78845;BME280;68195;50.854;2.860;2024-03-02T05:04:55;99522.44;;;5.20;100.00
78845;BME280;68195;50.854;2.860;2024-03-02T05:07:25;99550.28;;;5.33;100.00
78845;BME280;68195;50.854;2.860;2024-03-02T05:09:50;99563.66;;;5.42;100.00
78845;BME280;68195;50.854;2.860;2024-03-02T05:12:16;99557.72;;;5.40;100.00
78845;BME280;68195;50.854;2.860;2024-03-02T05:14:41;99559.47;;;5.39;100.00
78845;BME280;68195;50.854;2.860;2024-03-02T05:17:09;99548.41;;;5.35;100.00
78845;BME280;68195;50.854;2.860;2024-03-02T05:19:36;99540.03;;;5.30;100.00
78845;BME280;68195;50.854;2.860;2024-03-02T05:22:02;99561.16;;;5.40;100.00
78845;BME280;68195;50.854;2.860;2024-03-02T05:24:28;99530.84;;;5.25;100.00
78845;BME280;68195;50.854;2.860;2024-03-02T05:26:54;99522.44;;;5.20;100.00
78845;BME280;68195;50.854;2.860;2024-03-02T05:29:20;99524.97;;;5.21;100.00
78845;BME280;68195;50.854;2.860;2024-03-02T05:31:46;99511.38;;;5.16;100.00
78845;BME280;68195;50.854;2.860;2024-03-02T05:34:13;99555.28;;;5.37;100.00
78845;BME280;68195;50.854;2.860;2024-03-02T05:36:41;99551.94;;;5.34;100.00
78845;BME280;68195;50.854;2.860;2024-03-02T05:39:06;99543.56;;;5.29;100.00
78845;BME280;68195;50.854;2.860;2024-03-02T05:41:34;99535.16;;;5.24;100.00
78845;BME280;68195;50.854;2.860;2024-03-02T05:44:02;99530.13;;;5.21;100.00
78845;BME280;68195;50.854;2.860;2024-03-02T05:46:30;99557.28;;;5.31;100.00
78845;BME280;68195;50.854;2.860;2024-03-02T05:48:56;99535.38;;;5.20;100.00
78845;BME280;68195;50.854;2.860;2024-03-02T05:51:21;99535.38;;;5.20;100.00
78845;BME280;68195;50.854;2.860;2024-03-02T05:53:47;99532.09;;;5.16;100.00
78845;BME280;68195;50.854;2.860;2024-03-02T05:56:12;99525.41;;;5.12;100.00
78845;BME280;68195;50.854;2.860;2024-03-02T05:58:38;99561.03;;;5.24;100.00
78845;BME280;68195;50.854;2.860;2024-03-02T06:01:22;99521.88;;;5.13;100.00
78845;BME280;68195;50.854;2.860;2024-03-02T06:03:53;99537.69;;;5.26;100.00
78845;BME280;68195;50.854;2.860;2024-03-02T06:06:22;99538.38;;;5.29;100.00
78845;BME280;68195;50.854;2.860;2024-03-02T06:08:51;99517.41;;;5.17;100.00
78845;BME280;68195;50.854;2.860;2024-03-02T06:11:17;99543.63;;;5.28;100.00
78845;BME280;68195;50.854;2.860;2024-03-02T06:13:42;99544.91;;;5.19;100.00
78845;BME280;68195;50.854;2.860;2024-03-02T06:16:07;99552.09;;;5.31;100.00
78845;BME280;68195;50.854;2.860;2024-03-02T06:18:34;99519.59;;;5.07;100.00
78845;BME280;68195;50.854;2.860;2024-03-02T06:20:59;99533.22;;;5.10;100.00
78845;BME280;68195;50.854;2.860;2024-03-02T06:23:30;99562.78;;;5.24;100.00
78845;BME280;68195;50.854;2.860;2024-03-02T06:25:55;99576.72;;;5.21;100.00
78845;BME280;68195;50.854;2.860;2024-03-02T06:28:20;99561.47;;;5.15;100.00
78845;BME280;68195;50.854;2.860;2024-03-02T06:30:48;99549.88;;;5.05;100.00
78845;BME280;68195;50.854;2.860;2024-03-02T06:33:16;99546.22;;;5.09;100.00
78845;BME280;68195;50.854;2.860;2024-03-02T06:35:42;99570.72;;;5.21;100.00
78845;BME280;68195;50.854;2.860;2024-03-02T06:38:07;99565.31;;;5.25;100.00
78845;BME280;68195;50.854;2.860;2024-03-02T06:40:35;99572.09;;;5.28;100.00
78845;BME280;68195;50.854;2.860;2024-03-02T06:43:02;99557.84;;;5.19;100.00
78845;BME280;68195;50.854;2.860;2024-03-02T06:45:28;99559.59;;;5.19;100.00
78845;BME280;68195;50.854;2.860;2024-03-02T06:47:56;99548.75;;;5.10;100.00
78845;BME280;68195;50.854;2.860;2024-03-02T06:50:25;99541.81;;;5.11;100.00
78845;BME280;68195;50.854;2.860;2024-03-02T06:52:50;99524.09;;;5.03;100.00
78845;BME280;68195;50.854;2.860;2024-03-02T06:55:16;99565.53;;;5.21;100.00
78845;BME280;68195;50.854;2.860;2024-03-02T06:57:45;99566.22;;;5.24;100.00
78845;BME280;68195;50.854;2.860;2024-03-02T07:00:13;99580.47;;;5.33;100.00
78845;BME280;68195;50.854;2.860;2024-03-02T07:02:39;99567.81;;;5.27;100.00
78845;BME280;68195;50.854;2.860;2024-03-02T07:05:07;99574.75;;;5.26;100.00
78845;BME280;68195;50.854;2.860;2024-03-02T07:07:32;99570.50;;;5.25;100.00
78845;BME280;68195;50.854;2.860;2024-03-02T07:09:58;99577.81;;;5.34;100.00
78845;BME280;68195;50.854;2.860;2024-03-02T07:12:26;99579.47;;;5.35;100.00
78845;BME280;68195;50.854;2.860;2024-03-02T07:14:54;99581.56;;;5.46;100.00
78845;BME280;68195;50.854;2.860;2024-03-02T07:17:29;99555.44;;;5.33;100.00
78845;BME280;68195;50.854;2.860;2024-03-02T07:19:54;99551.94;;;5.34;100.00
78845;BME280;68195;50.854;2.860;2024-03-02T07:22:20;99557.03;;;5.36;100.00
78845;BME280;68195;50.854;2.860;2024-03-02T07:24:48;99571.63;;;5.56;100.00
78845;BME280;68195;50.854;2.860;2024-03-02T07:27:14;99566.44;;;5.56;100.00
78845;BME280;68195;50.854;2.860;2024-03-02T07:29:40;99555.31;;;5.54;100.00
78845;BME280;68195;50.854;2.860;2024-03-02T07:32:08;99560.34;;;5.57;100.00
78845;BME280;68195;50.854;2.860;2024-03-02T07:34:34;99547.72;;;5.51;100.00
78845;BME280;68195;50.854;2.860;2024-03-02T07:37:02;99568.44;;;5.68;100.00
78845;BME280;68195;50.854;2.860;2024-03-02T07:39:30;99551.59;;;5.60;100.00
78845;BME280;68195;50.854;2.860;2024-03-02T07:41:58;99574.22;;;5.73;100.00
78845;BME280;68195;50.854;2.860;2024-03-02T07:44:26;99581.09;;;5.74;100.00
78845;BME280;68195;50.854;2.860;2024-03-02T07:46:52;99562.81;;;5.78;100.00
78845;BME280;68195;50.854;2.860;2024-03-02T07:49:18;99586.66;;;5.84;100.00
78845;BME280;68195;50.854;2.860;2024-03-02T07:51:46;99576.13;;;5.87;100.00
78845;BME280;68195;50.854;2.860;2024-03-02T07:54:14;99557.63;;;5.78;100.00
78845;BME280;68195;50.854;2.860;2024-03-02T07:56:41;99591.47;;;5.92;100.00
78845;BME280;68195;50.854;2.860;2024-03-02T07:59:07;99565.94;;;5.84;100.00
78845;BME280;68195;50.854;2.860;2024-03-02T08:01:33;99586.00;;;5.98;100.00
78845;BME280;68195;50.854;2.860;2024-03-02T08:04:00;99594.19;;;6.08;100.00
78845;BME280;68195;50.854;2.860;2024-03-02T08:06:31;99599.00;;;6.15;100.00
78845;BME280;68195;50.854;2.860;2024-03-02T08:08:58;99577.63;;;6.10;100.00
78845;BME280;68195;50.854;2.860;2024-03-02T08:11:23;99593.72;;;6.17;100.00
78845;BME280;68195;50.854;2.860;2024-03-02T08:13:49;99577.69;;;6.26;100.00
78845;BME280;68195;50.854;2.860;2024-03-02T08:16:17;99591.19;;;6.33;100.00
78845;BME280;68195;50.854;2.860;2024-03-02T08:18:46;99592.63;;;6.39;100.00
78845;BME280;68195;50.854;2.860;2024-03-02T08:21:15;99605.22;;;6.46;100.00
78845;BME280;68195;50.854;2.860;2024-03-02T08:23:42;99600.53;;;6.53;100.00
78845;BME280;68195;50.854;2.860;2024-03-02T08:26:08;99578.06;;;6.36;100.00
78845;BME280;68195;50.854;2.860;2024-03-02T08:28:33;99588.72;;;6.47;100.00
78845;BME280;68195;50.854;2.860;2024-03-02T08:31:01;99569.22;;;6.40;100.00
78845;BME280;68195;50.854;2.860;2024-03-02T08:33:29;99569.22;;;6.40;100.00
78845;BME280;68195;50.854;2.860;2024-03-02T08:35:54;99598.72;;;6.55;100.00
78845;BME280;68195;50.854;2.860;2024-03-02T08:38:20;99583.47;;;6.49;100.00
78845;BME280;68195;50.854;2.860;2024-03-02T08:40:49;99565.38;;;6.47;100.00
78845;BME280;68195;50.854;2.860;2024-03-02T08:43:17;99570.50;;;6.49;100.00
78845;BME280;68195;50.854;2.860;2024-03-02T08:45:45;99577.28;;;6.51;100.00
78845;BME280;68195;50.854;2.860;2024-03-02T08:48:11;99573.00;;;6.50;100.00
78845;BME280;68195;50.854;2.860;2024-03-02T08:50:40;99579.72;;;6.54;100.00
78845;BME280;68195;50.854;2.860;2024-03-02T08:53:06;99593.97;;;6.63;100.00
78845;BME280;68195;50.854;2.860;2024-03-02T08:55:31;99579.88;;;6.51;100.00
78845;BME280;68195;50.854;2.860;2024-03-02T08:57:57;99594.28;;;6.57;100.00
78845;BME280;68195;50.854;2.860;2024-03-02T09:00:23;99569.56;;;6.50;100.00
78845;BME280;68195;50.854;2.860;2024-03-02T09:02:48;99601.34;;;6.71;100.00
78845;BME280;68195;50.854;2.860;2024-03-02T09:05:16;99578.03;;;6.53;100.00
78845;BME280;68195;50.854;2.860;2024-03-02T09:07:41;99557.84;;;6.43;100.00
78845;BME280;68195;50.854;2.860;2024-03-02T09:10:08;99590.44;;;6.64;100.00
78845;BME280;68195;50.854;2.860;2024-03-02T09:12:34;99601.34;;;6.71;100.00
78845;BME280;68195;50.854;2.860;2024-03-02T09:15:00;99583.81;;;6.58;100.00
78845;BME280;68195;50.854;2.860;2024-03-02T09:17:25;99598.44;;;6.77;100.00
78845;BME280;68195;50.854;2.860;2024-03-02T09:19:51;99588.53;;;6.68;100.00
78845;BME280;68195;50.854;2.860;2024-03-02T09:22:18;99586.00;;;6.66;100.00
78845;BME280;68195;50.854;2.860;2024-03-02T09:24:44;99594.00;;;6.79;100.00
78845;BME280;68195;50.854;2.860;2024-03-02T09:27:11;99561.22;;;6.61;100.00
78845;BME280;68195;50.854;2.860;2024-03-02T09:29:37;99565.00;;;6.71;100.00
78845;BME280;68195;50.854;2.860;2024-03-02T09:32:04;99562.41;;;6.71;100.00
78845;BME280;68195;50.854;2.860;2024-03-02T09:34:32;99570.47;;;6.82;100.00
78845;BME280;68195;50.854;2.860;2024-03-02T09:36:58;99571.31;;;6.83;100.00
78845;BME280;68195;50.854;2.860;2024-03-02T09:39:23;99582.78;;;6.94;100.00
78845;BME280;68195;50.854;2.860;2024-03-02T09:41:54;99570.00;;;6.91;100.00
78845;BME280;68195;50.854;2.860;2024-03-02T09:44:20;99564.97;;;7.04;100.00
78845;BME280;68195;50.854;2.860;2024-03-02T09:46:49;99550.75;;;6.95;100.00
78845;BME280;68195;50.854;2.860;2024-03-02T09:49:14;99580.06;;;7.13;100.00
78845;BME280;68195;50.854;2.860;2024-03-02T09:51:43;99571.81;;;7.21;100.00
78845;BME280;68195;50.854;2.860;2024-03-02T09:54:11;99552.50;;;7.11;100.00
78845;BME280;68195;50.854;2.860;2024-03-02T09:56:37;99568.31;;;7.22;100.00
78845;BME280;68195;50.854;2.860;2024-03-02T09:59:02;99564.78;;;7.23;100.00
78845;BME280;68195;50.854;2.860;2024-03-02T10:01:27;99563.28;;;7.35;100.00
78845;BME280;68195;50.854;2.860;2024-03-02T10:03:53;99528.44;;;7.23;100.00
78845;BME280;68195;50.854;2.860;2024-03-02T10:06:21;99531.63;;;7.28;100.00
78845;BME280;68195;50.854;2.860;2024-03-02T10:08:46;99549.09;;;7.40;100.00
78845;BME280;68195;50.854;2.860;2024-03-02T10:11:26;99564.28;;;7.48;100.00
78845;BME280;68195;50.854;2.860;2024-03-02T10:14:10;99558.75;;;7.54;100.00
78845;BME280;68195;50.854;2.860;2024-03-02T10:16:40;99546.34;;;7.44;100.00
78845;BME280;68195;50.854;2.860;2024-03-02T10:19:24;99541.72;;;7.49;100.00
78845;BME280;68195;50.854;2.860;2024-03-02T10:21:51;99556.63;;;7.61;100.00
78845;BME280;68195;50.854;2.860;2024-03-02T10:24:21;99526.75;;;7.54;100.00
78845;BME280;68195;50.854;2.860;2024-03-02T10:26:52;99561.31;;;7.70;100.00
78845;BME280;68195;50.854;2.860;2024-03-02T10:29:18;99543.31;;;7.67;100.00
78845;BME280;68195;50.854;2.860;2024-03-02T10:31:46;99544.97;;;7.68;100.00
78845;BME280;68195;50.854;2.860;2024-03-02T10:34:14;99545.44;;;7.75;100.00
78845;BME280;68195;50.854;2.860;2024-03-02T10:36:42;99558.84;;;7.83;100.00
78845;BME280;68195;50.854;2.860;2024-03-02T10:39:12;99550.22;;;7.83;100.00
78845;BME280;68195;50.854;2.860;2024-03-02T10:41:40;99533.13;;;7.78;100.00
78845;BME280;68195;50.854;2.860;2024-03-02T10:44:09;99542.91;;;7.89;100.00
78845;BME280;68195;50.854;2.860;2024-03-02T10:46:38;99552.47;;;7.89;100.00
78845;BME280;68195;50.854;2.860;2024-03-02T10:49:04;99547.25;;;7.89;100.00
78845;BME280;68195;50.854;2.860;2024-03-02T10:51:33;99541.94;;;7.90;100.00
78845;BME280;68195;50.854;2.860;2024-03-02T10:54:02;99538.72;;;7.87;100.00
78845;BME280;68195;50.854;2.860;2024-03-02T10:56:38;99519.78;;;7.85;100.00
78845;BME280;68195;50.854;2.860;2024-03-02T10:59:17;99562.44;;;8.11;100.00
78845;BME280;68195;50.854;2.860;2024-03-02T11:01:52;99544.94;;;7.98;100.00
78845;BME280;68195;50.854;2.860;2024-03-02T11:04:21;99566.34;;;8.18;100.00
78845;BME280;68195;50.854;2.860;2024-03-02T11:06:50;99568.13;;;8.17;100.00
78845;BME280;68195;50.854;2.860;2024-03-02T11:09:20;99560.31;;;8.17;100.00
78845;BME280;68195;50.854;2.860;2024-03-02T11:11:56;99549.72;;;8.06;100.00
78845;BME280;68195;50.854;2.860;2024-03-02T11:14:24;99577.97;;;8.27;100.00
78845;BME280;68195;50.854;2.860;2024-03-02T11:16:51;99570.44;;;8.22;100.00
78845;BME280;68195;50.854;2.860;2024-03-02T11:19:18;99546.28;;;8.06;100.00
78845;BME280;68195;50.854;2.860;2024-03-02T11:21:46;99547.88;;;8.08;100.00
78845;BME280;68195;50.854;2.860;2024-03-02T11:26:50;99561.25;;;8.16;100.00
78845;BME280;68195;50.854;2.860;2024-03-02T11:32:16;99587.47;;;8.28;100.00
78845;BME280;68195;50.854;2.860;2024-03-02T11:34:45;99547.19;;;8.05;100.00
78845;BME280;68195;50.854;2.860;2024-03-02T11:37:15;99571.28;;;8.22;100.00
78845;BME280;68195;50.854;2.860;2024-03-02T11:39:42;99571.94;;;8.26;100.00
78845;BME280;68195;50.854;2.860;2024-03-02T11:42:08;99573.88;;;8.22;100.00
78845;BME280;68195;50.854;2.860;2024-03-02T11:44:35;99576.94;;;8.29;100.00
78845;BME280;68195;50.854;2.860;2024-03-02T11:47:05;99567.19;;;8.18;100.00
78845;BME280;68195;50.854;2.860;2024-03-02T11:49:39;99578.72;;;8.29;100.00
78845;BME280;68195;50.854;2.860;2024-03-02T11:52:10;99572.75;;;8.27;100.00
78845;BME280;68195;50.854;2.860;2024-03-02T11:54:41;99547.66;;;8.11;100.00
78845;BME280;68195;50.854;2.860;2024-03-02T11:57:16;99571.03;;;8.27;100.00
78845;BME280;68195;50.854;2.860;2024-03-02T11:59:42;99559.13;;;8.23;100.00
78845;BME280;68195;50.854;2.860;2024-03-02T12:02:16;99554.00;;;8.21;100.00
78845;BME280;68195;50.854;2.860;2024-03-02T12:04:43;99541.00;;;8.21;100.00
78845;BME280;68195;50.854;2.860;2024-03-02T12:07:11;99555.41;;;8.27;100.00
78845;BME280;68195;50.854;2.860;2024-03-02T12:09:40;99552.06;;;8.25;100.00
78845;BME280;68195;50.854;2.860;2024-03-02T12:14:32;99560.44;;;8.30;100.00
78845;BME280;68195;50.854;2.860;2024-03-02T12:17:00;99555.22;;;8.30;100.00
78845;BME280;68195;50.854;2.860;2024-03-02T12:19:26;99558.56;;;8.32;100.00
78845;BME280;68195;50.854;2.860;2024-03-02T12:21:55;99537.75;;;8.32;100.00
78845;BME280;68195;50.854;2.860;2024-03-02T12:24:21;99528.47;;;8.28;100.00
78845;BME280;68195;50.854;2.860;2024-03-02T12:26:50;99510.72;;;8.20;100.00
78845;BME280;68195;50.854;2.860;2024-03-02T12:29:16;99510.72;;;8.20;100.00
78845;BME280;68195;50.854;2.860;2024-03-02T12:31:44;99505.50;;;8.20;100.00
78845;BME280;68195;50.854;2.860;2024-03-02T12:34:13;99522.16;;;8.32;100.00
78845;BME280;68195;50.854;2.860;2024-03-02T12:36:40;99525.41;;;8.36;100.00
78845;BME280;68195;50.854;2.860;2024-03-02T12:39:10;99517.63;;;8.36;100.00
78845;BME280;68195;50.854;2.860;2024-03-02T12:41:37;99492.91;;;8.14;100.00
78845;BME280;68195;50.854;2.860;2024-03-02T12:44:03;99520.00;;;8.25;100.00
78845;BME280;68195;50.854;2.860;2024-03-02T12:46:29;99541.03;;;8.36;100.00
78845;BME280;68195;50.854;2.860;2024-03-02T12:48:57;99520.47;;;8.31;100.00
78845;BME280;68195;50.854;2.860;2024-03-02T12:51:26;99533.94;;;8.38;100.00
78845;BME280;68195;50.854;2.860;2024-03-02T12:53:56;99506.25;;;8.22;100.00
78845;BME280;68195;50.854;2.860;2024-03-02T12:56:23;99518.16;;;8.27;100.00
78845;BME280;68195;50.854;2.860;2024-03-02T12:58:53;99520.66;;;8.28;100.00
78845;BME280;68195;50.854;2.860;2024-03-02T13:01:19;99523.19;;;8.30;100.00
78845;BME280;68195;50.854;2.860;2024-03-02T13:03:44;99506.25;;;8.22;100.00
78845;BME280;68195;50.854;2.860;2024-03-02T13:06:10;99484.59;;;8.08;100.00
78845;BME280;68195;50.854;2.860;2024-03-02T13:08:38;99503.84;;;8.19;100.00
78845;BME280;68195;50.854;2.860;2024-03-02T13:11:04;99505.78;;;8.16;100.00
78845;BME280;68195;50.854;2.860;2024-03-02T13:13:32;99497.34;;;8.12;100.00
78845;BME280;68195;50.854;2.860;2024-03-02T13:15:58;99490.84;;;8.19;100.00
78845;BME280;68195;50.854;2.860;2024-03-02T13:18:26;99500.88;;;8.26;100.00
78845;BME280;68195;50.854;2.860;2024-03-02T13:20:52;99530.63;;;8.36;100.00